sensor_id;sensor_type;location;lat;lon;timestamp;P1;durP1;ratioP1;P2;durP2;ratioP2
40152;SDS011;26371;56.992;23.912;2022-09-09T00:04:26;6.72;;;1.40;;
40152;SDS011;26371;56.992;23.912;2022-09-09T00:06:59;3.08;;;1.10;;
40152;SDS011;26371;56.992;23.912;2022-09-09T00:09:35;4.47;;;1.15;;
40152;SDS011;26371;56.992;23.912;2022-09-09T00:12:15;5.30;;;1.20;;
40152;SDS011;26371;56.992;23.912;2022-09-09T00:14:50;4.38;;;1.10;;
40152;SDS011;26371;56.992;23.912;2022-09-09T00:17:25;4.85;;;1.10;;
40152;SDS011;26371;56.992;23.912;2022-09-09T00:27:25;5.95;;;1.27;;
40152;SDS011;26371;56.992;23.912;2022-09-09T00:30:00;3.63;;;1.13;;
40152;SDS011;26371;56.992;23.912;2022-09-09T00:44:32;6.55;;;1.30;;
40152;SDS011;26371;56.992;23.912;2022-09-09T00:47:12;4.60;;;1.23;;
40152;SDS011;26371;56.992;23.912;2022-09-09T00:49:48;8.00;;;1.95;;
40152;SDS011;26371;56.992;23.912;2022-09-09T00:55:41;3.40;;;1.13;;
40152;SDS011;26371;56.992;23.912;2022-09-09T00:58:14;4.80;;;1.20;;
40152;SDS011;26371;56.992;23.912;2022-09-09T01:07:00;4.32;;;1.30;;
40152;SDS011;26371;56.992;23.912;2022-09-09T01:09:32;4.05;;;0.90;;
40152;SDS011;26371;56.992;23.912;2022-09-09T01:16:18;4.43;;;1.00;;
40152;SDS011;26371;56.992;23.912;2022-09-09T01:21:19;3.65;;;1.20;;
40152;SDS011;26371;56.992;23.912;2022-09-09T01:28:13;4.80;;;1.10;;
40152;SDS011;26371;56.992;23.912;2022-09-09T01:30:45;4.25;;;1.02;;
40152;SDS011;26371;56.992;23.912;2022-09-09T01:53:08;3.85;;;1.10;;
40152;SDS011;26371;56.992;23.912;2022-09-09T02:06:20;4.43;;;1.00;;
40152;SDS011;26371;56.992;23.912;2022-09-09T02:09:18;3.65;;;1.08;;
40152;SDS011;26371;56.992;23.912;2022-09-09T02:16:04;3.40;;;1.25;;
40152;SDS011;26371;56.992;23.912;2022-09-09T02:22:51;3.63;;;1.10;;
40152;SDS011;26371;56.992;23.912;2022-09-09T02:29:30;4.22;;;1.23;;
40152;SDS011;26371;56.992;23.912;2022-09-09T02:38:08;6.68;;;1.30;;
40152;SDS011;26371;56.992;23.912;2022-09-09T02:48:59;3.85;;;1.13;;
40152;SDS011;26371;56.992;23.912;2022-09-09T03:00:04;3.78;;;1.48;;
40152;SDS011;26371;56.992;23.912;2022-09-09T03:06:14;4.50;;;1.40;;
40152;SDS011;26371;56.992;23.912;2022-09-09T03:08:48;3.35;;;1.13;;
40152;SDS011;26371;56.992;23.912;2022-09-09T03:11:27;3.85;;;0.90;;
40152;SDS011;26371;56.992;23.912;2022-09-09T03:13:59;2.85;;;1.27;;
40152;SDS011;26371;56.992;23.912;2022-09-09T03:16:30;5.07;;;1.00;;
40152;SDS011;26371;56.992;23.912;2022-09-09T03:27:05;5.90;;;1.75;;
40152;SDS011;26371;56.992;23.912;2022-09-09T03:29:36;5.10;;;1.45;;
40152;SDS011;26371;56.992;23.912;2022-09-09T03:39:57;4.88;;;1.30;;
40152;SDS011;26371;56.992;23.912;2022-09-09T03:45:47;3.55;;;1.38;;
40152;SDS011;26371;56.992;23.912;2022-09-09T04:22:18;3.63;;;1.17;;
40152;SDS011;26371;56.992;23.912;2022-09-09T04:24:48;4.68;;;1.60;;
40152;SDS011;26371;56.992;23.912;2022-09-09T04:27:20;4.50;;;1.17;;
40152;SDS011;26371;56.992;23.912;2022-09-09T04:29:49;4.55;;;1.27;;
40152;SDS011;26371;56.992;23.912;2022-09-09T04:32:25;7.45;;;1.60;;
40152;SDS011;26371;56.992;23.912;2022-09-09T04:41:26;5.47;;;1.10;;
40152;SDS011;26371;56.992;23.912;2022-09-09T04:48:39;2.78;;;1.20;;
40152;SDS011;26371;56.992;23.912;2022-09-09T04:51:10;3.95;;;1.40;;
40152;SDS011;26371;56.992;23.912;2022-09-09T04:53:48;6.00;;;1.23;;
40152;SDS011;26371;56.992;23.912;2022-09-09T04:59:12;2.92;;;1.20;;
40152;SDS011;26371;56.992;23.912;2022-09-09T05:01:44;3.90;;;1.20;;
40152;SDS011;26371;56.992;23.912;2022-09-09T05:04:26;4.25;;;1.35;;
40152;SDS011;26371;56.992;23.912;2022-09-09T05:06:55;3.80;;;1.20;;
40152;SDS011;26371;56.992;23.912;2022-09-09T05:09:24;4.75;;;1.40;;
40152;SDS011;26371;56.992;23.912;2022-09-09T05:11:55;7.63;;;1.45;;
40152;SDS011;26371;56.992;23.912;2022-09-09T05:14:31;4.82;;;1.17;;
40152;SDS011;26371;56.992;23.912;2022-09-09T05:17:00;4.13;;;1.52;;
40152;SDS011;26371;56.992;23.912;2022-09-09T05:19:31;6.82;;;1.45;;
40152;SDS011;26371;56.992;23.912;2022-09-09T05:22:03;4.75;;;1.42;;
40152;SDS011;26371;56.992;23.912;2022-09-09T05:24:41;4.95;;;1.70;;
40152;SDS011;26371;56.992;23.912;2022-09-09T05:27:12;4.30;;;1.48;;
40152;SDS011;26371;56.992;23.912;2022-09-09T05:29:56;5.28;;;1.60;;
40152;SDS011;26371;56.992;23.912;2022-09-09T05:32:26;3.97;;;1.40;;
40152;SDS011;26371;56.992;23.912;2022-09-09T05:35:00;3.63;;;1.60;;
40152;SDS011;26371;56.992;23.912;2022-09-09T05:37:37;4.50;;;1.50;;
40152;SDS011;26371;56.992;23.912;2022-09-09T05:40:07;4.80;;;1.42;;
40152;SDS011;26371;56.992;23.912;2022-09-09T05:42:43;5.38;;;1.85;;
40152;SDS011;26371;56.992;23.912;2022-09-09T05:45:11;6.38;;;2.25;;
40152;SDS011;26371;56.992;23.912;2022-09-09T05:47:41;4.45;;;1.50;;
40152;SDS011;26371;56.992;23.912;2022-09-09T05:50:14;7.68;;;1.80;;
40152;SDS011;26371;56.992;23.912;2022-09-09T05:55:37;4.60;;;1.42;;
40152;SDS011;26371;56.992;23.912;2022-09-09T05:58:07;7.80;;;2.40;;
40152;SDS011;26371;56.992;23.912;2022-09-09T06:00:37;5.93;;;1.80;;
40152;SDS011;26371;56.992;23.912;2022-09-09T06:12:12;4.25;;;1.40;;
40152;SDS011;26371;56.992;23.912;2022-09-09T06:14:43;5.32;;;1.63;;
40152;SDS011;26371;56.992;23.912;2022-09-09T06:21:29;5.38;;;1.65;;
40152;SDS011;26371;56.992;23.912;2022-09-09T06:26:58;5.90;;;1.50;;
40152;SDS011;26371;56.992;23.912;2022-09-09T06:29:34;3.40;;;1.10;;
40152;SDS011;26371;56.992;23.912;2022-09-09T06:36:26;4.18;;;1.08;;
40152;SDS011;26371;56.992;23.912;2022-09-09T06:38:57;4.38;;;1.10;;
40152;SDS011;26371;56.992;23.912;2022-09-09T06:41:27;5.63;;;1.35;;
40152;SDS011;26371;56.992;23.912;2022-09-09T06:43:57;5.22;;;1.23;;
40152;SDS011;26371;56.992;23.912;2022-09-09T06:51:19;4.47;;;1.17;;
40152;SDS011;26371;56.992;23.912;2022-09-09T06:53:51;5.53;;;1.20;;
40152;SDS011;26371;56.992;23.912;2022-09-09T06:56:23;5.97;;;1.13;;
40152;SDS011;26371;56.992;23.912;2022-09-09T07:02:07;3.58;;;1.25;;
40152;SDS011;26371;56.992;23.912;2022-09-09T07:04:36;8.45;;;1.40;;
40152;SDS011;26371;56.992;23.912;2022-09-09T07:07:07;13.82;;;1.80;;
40152;SDS011;26371;56.992;23.912;2022-09-09T07:15:31;6.82;;;1.20;;
40152;SDS011;26371;56.992;23.912;2022-09-09T07:25:48;5.88;;;1.30;;
40152;SDS011;26371;56.992;23.912;2022-09-09T07:28:21;3.42;;;1.25;;
40152;SDS011;26371;56.992;23.912;2022-09-09T07:30:54;3.75;;;1.10;;
40152;SDS011;26371;56.992;23.912;2022-09-09T07:40:34;3.70;;;1.10;;
40152;SDS011;26371;56.992;23.912;2022-09-09T07:47:17;4.45;;;0.90;;
40152;SDS011;26371;56.992;23.912;2022-09-09T07:49:49;2.35;;;0.95;;
40152;SDS011;26371;56.992;23.912;2022-09-09T07:52:24;3.20;;;0.90;;
40152;SDS011;26371;56.992;23.912;2022-09-09T08:03:16;4.45;;;1.67;;
40152;SDS011;26371;56.992;23.912;2022-09-09T08:08:36;4.32;;;1.17;;
40152;SDS011;26371;56.992;23.912;2022-09-09T08:11:10;2.83;;;1.13;;
40152;SDS011;26371;56.992;23.912;2022-09-09T08:13:43;4.10;;;1.02;;
40152;SDS011;26371;56.992;23.912;2022-09-09T08:16:20;5.10;;;0.75;;
40152;SDS011;26371;56.992;23.912;2022-09-09T08:18:53;4.93;;;1.08;;
40152;SDS011;26371;56.992;23.912;2022-09-09T08:24:31;3.17;;;0.98;;
40152;SDS011;26371;56.992;23.912;2022-09-09T08:27:03;3.88;;;0.90;;
40152;SDS011;26371;56.992;23.912;2022-09-09T08:29:34;4.07;;;0.95;;
40152;SDS011;26371;56.992;23.912;2022-09-09T08:32:06;3.08;;;0.80;;
40152;SDS011;26371;56.992;23.912;2022-09-09T08:41:15;2.97;;;0.80;;
40152;SDS011;26371;56.992;23.912;2022-09-09T08:44:02;4.05;;;0.75;;
40152;SDS011;26371;56.992;23.912;2022-09-09T08:53:16;3.95;;;0.90;;
40152;SDS011;26371;56.992;23.912;2022-09-09T08:55:52;13.45;;;1.63;;
40152;SDS011;26371;56.992;23.912;2022-09-09T08:58:43;1.90;;;0.70;;
40152;SDS011;26371;56.992;23.912;2022-09-09T09:01:32;3.30;;;0.70;;
40152;SDS011;26371;56.992;23.912;2022-09-09T09:08:00;6.38;;;0.70;;
40152;SDS011;26371;56.992;23.912;2022-09-09T09:10:43;3.67;;;0.60;;
40152;SDS011;26371;56.992;23.912;2022-09-09T09:13:23;2.83;;;0.60;;
40152;SDS011;26371;56.992;23.912;2022-09-09T09:16:11;5.20;;;1.27;;
40152;SDS011;26371;56.992;23.912;2022-09-09T09:18:48;1.45;;;0.50;;
40152;SDS011;26371;56.992;23.912;2022-09-09T09:21:19;5.00;;;1.35;;
40152;SDS011;26371;56.992;23.912;2022-09-09T09:23:57;4.22;;;0.80;;
40152;SDS011;26371;56.992;23.912;2022-09-09T09:26:31;1.80;;;0.70;;
40152;SDS011;26371;56.992;23.912;2022-09-09T09:29:09;23.20;;;2.00;;
40152;SDS011;26371;56.992;23.912;2022-09-09T09:31:42;5.75;;;1.55;;
40152;SDS011;26371;56.992;23.912;2022-09-09T09:34:14;3.05;;;0.55;;
40152;SDS011;26371;56.992;23.912;2022-09-09T09:36:52;2.80;;;0.57;;
40152;SDS011;26371;56.992;23.912;2022-09-09T09:39:23;3.28;;;0.70;;
40152;SDS011;26371;56.992;23.912;2022-09-09T09:42:16;2.88;;;0.63;;
40152;SDS011;26371;56.992;23.912;2022-09-09T09:44:53;1.75;;;0.68;;
40152;SDS011;26371;56.992;23.912;2022-09-09T09:47:22;3.67;;;0.90;;
40152;SDS011;26371;56.992;23.912;2022-09-09T09:50:18;1.85;;;0.70;;
40152;SDS011;26371;56.992;23.912;2022-09-09T09:52:54;2.53;;;0.90;;
40152;SDS011;26371;56.992;23.912;2022-09-09T09:55:26;2.25;;;0.85;;
40152;SDS011;26371;56.992;23.912;2022-09-09T09:58:01;2.20;;;0.80;;
40152;SDS011;26371;56.992;23.912;2022-09-09T10:00:34;2.17;;;0.80;;
40152;SDS011;26371;56.992;23.912;2022-09-09T10:03:13;2.72;;;1.00;;
40152;SDS011;26371;56.992;23.912;2022-09-09T10:05:54;2.88;;;0.90;;
40152;SDS011;26371;56.992;23.912;2022-09-09T10:08:24;3.53;;;0.70;;
40152;SDS011;26371;56.992;23.912;2022-09-09T10:10:57;2.00;;;0.75;;
40152;SDS011;26371;56.992;23.912;2022-09-09T10:13:33;1.60;;;0.55;;
40152;SDS011;26371;56.992;23.912;2022-09-09T10:16:13;3.45;;;0.88;;
40152;SDS011;26371;56.992;23.912;2022-09-09T10:18:56;4.65;;;0.77;;
40152;SDS011;26371;56.992;23.912;2022-09-09T10:24:32;8.82;;;0.80;;
40152;SDS011;26371;56.992;23.912;2022-09-09T10:27:33;8.40;;;1.03;;
40152;SDS011;26371;56.992;23.912;2022-09-09T10:30:10;3.13;;;0.70;;
40152;SDS011;26371;56.992;23.912;2022-09-09T10:32:56;3.50;;;0.80;;
40152;SDS011;26371;56.992;23.912;2022-09-09T10:35:35;2.13;;;0.70;;
40152;SDS011;26371;56.992;23.912;2022-09-09T10:38:18;5.93;;;1.70;;
40152;SDS011;26371;56.992;23.912;2022-09-09T10:43:57;1.70;;;0.60;;
40152;SDS011;26371;56.992;23.912;2022-09-09T10:46:48;3.75;;;1.20;;
40152;SDS011;26371;56.992;23.912;2022-09-09T10:49:35;4.00;;;1.10;;
40152;SDS011;26371;56.992;23.912;2022-09-09T10:52:18;4.85;;;0.80;;
40152;SDS011;26371;56.992;23.912;2022-09-09T10:54:54;3.35;;;0.70;;
40152;SDS011;26371;56.992;23.912;2022-09-09T10:57:29;1.70;;;0.70;;
40152;SDS011;26371;56.992;23.912;2022-09-09T11:00:04;2.25;;;0.70;;
40152;SDS011;26371;56.992;23.912;2022-09-09T11:02:42;1.65;;;0.60;;
40152;SDS011;26371;56.992;23.912;2022-09-09T11:05:14;2.17;;;0.80;;
40152;SDS011;26371;56.992;23.912;2022-09-09T11:07:46;1.75;;;0.68;;
40152;SDS011;26371;56.992;23.912;2022-09-09T11:10:18;2.65;;;0.90;;
40152;SDS011;26371;56.992;23.912;2022-09-09T11:12:53;8.10;;;1.00;;
40152;SDS011;26371;56.992;23.912;2022-09-09T11:19:41;2.35;;;0.73;;
40152;SDS011;26371;56.992;23.912;2022-09-09T11:22:24;3.58;;;0.82;;
40152;SDS011;26371;56.992;23.912;2022-09-09T11:24:57;2.90;;;0.90;;
40152;SDS011;26371;56.992;23.912;2022-09-09T11:27:32;14.82;;;1.20;;
40152;SDS011;26371;56.992;23.912;2022-09-09T11:33:35;6.57;;;0.88;;
40152;SDS011;26371;56.992;23.912;2022-09-09T11:36:35;3.42;;;0.85;;
40152;SDS011;26371;56.992;23.912;2022-09-09T11:42:24;4.10;;;0.75;;
40152;SDS011;26371;56.992;23.912;2022-09-09T11:47:24;9.23;;;1.42;;
40152;SDS011;26371;56.992;23.912;2022-09-09T11:50:07;4.05;;;0.70;;
40152;SDS011;26371;56.992;23.912;2022-09-09T11:52:40;5.05;;;1.17;;
40152;SDS011;26371;56.992;23.912;2022-09-09T11:55:25;3.63;;;1.35;;
40152;SDS011;26371;56.992;23.912;2022-09-09T11:57:57;3.45;;;0.65;;
40152;SDS011;26371;56.992;23.912;2022-09-09T12:00:30;2.55;;;0.90;;
40152;SDS011;26371;56.992;23.912;2022-09-09T12:03:04;2.45;;;0.70;;
40152;SDS011;26371;56.992;23.912;2022-09-09T12:05:36;4.15;;;0.80;;
40152;SDS011;26371;56.992;23.912;2022-09-09T12:08:10;6.47;;;1.70;;
40152;SDS011;26371;56.992;23.912;2022-09-09T12:10:53;5.13;;;1.35;;
40152;SDS011;26371;56.992;23.912;2022-09-09T12:13:25;4.25;;;0.98;;
40152;SDS011;26371;56.992;23.912;2022-09-09T12:15:55;2.28;;;0.52;;
40152;SDS011;26371;56.992;23.912;2022-09-09T12:18:25;2.95;;;0.70;;
40152;SDS011;26371;56.992;23.912;2022-09-09T12:21:12;3.97;;;1.00;;
40152;SDS011;26371;56.992;23.912;2022-09-09T12:23:50;3.00;;;1.20;;
40152;SDS011;26371;56.992;23.912;2022-09-09T12:26:30;4.60;;;1.33;;
40152;SDS011;26371;56.992;23.912;2022-09-09T12:29:05;10.35;;;1.00;;
40152;SDS011;26371;56.992;23.912;2022-09-09T12:31:44;3.33;;;0.90;;
40152;SDS011;26371;56.992;23.912;2022-09-09T12:34:33;4.18;;;1.10;;
40152;SDS011;26371;56.992;23.912;2022-09-09T12:40:41;3.92;;;0.60;;
40152;SDS011;26371;56.992;23.912;2022-09-09T12:43:19;1.48;;;0.70;;
40152;SDS011;26371;56.992;23.912;2022-09-09T12:49:03;4.88;;;0.80;;
40152;SDS011;26371;56.992;23.912;2022-09-09T12:51:37;4.90;;;0.77;;
40152;SDS011;26371;56.992;23.912;2022-09-09T12:54:12;4.15;;;0.90;;
40152;SDS011;26371;56.992;23.912;2022-09-09T12:56:44;3.30;;;0.90;;
40152;SDS011;26371;56.992;23.912;2022-09-09T12:59:24;4.47;;;0.75;;
40152;SDS011;26371;56.992;23.912;2022-09-09T13:02:11;2.38;;;0.82;;
40152;SDS011;26371;56.992;23.912;2022-09-09T13:04:46;4.43;;;0.70;;
40152;SDS011;26371;56.992;23.912;2022-09-09T13:07:17;2.58;;;0.60;;
40152;SDS011;26371;56.992;23.912;2022-09-09T13:17:28;2.05;;;0.52;;
40152;SDS011;26371;56.992;23.912;2022-09-09T13:20:15;2.63;;;0.70;;
40152;SDS011;26371;56.992;23.912;2022-09-09T13:25:51;2.03;;;0.60;;
40152;SDS011;26371;56.992;23.912;2022-09-09T13:28:23;2.15;;;0.63;;
40152;SDS011;26371;56.992;23.912;2022-09-09T13:30:59;2.15;;;0.50;;
40152;SDS011;26371;56.992;23.912;2022-09-09T13:36:59;2.35;;;0.60;;
40152;SDS011;26371;56.992;23.912;2022-09-09T13:39:32;2.35;;;0.80;;
40152;SDS011;26371;56.992;23.912;2022-09-09T13:46:59;5.78;;;0.90;;
40152;SDS011;26371;56.992;23.912;2022-09-09T13:49:36;3.92;;;0.73;;
40152;SDS011;26371;56.992;23.912;2022-09-09T13:54:38;3.10;;;0.75;;
40152;SDS011;26371;56.992;23.912;2022-09-09T13:57:13;4.63;;;0.80;;
40152;SDS011;26371;56.992;23.912;2022-09-09T13:59:44;3.45;;;0.65;;
40152;SDS011;26371;56.992;23.912;2022-09-09T14:02:31;1.83;;;0.60;;
40152;SDS011;26371;56.992;23.912;2022-09-09T14:05:01;2.15;;;0.68;;
40152;SDS011;26371;56.992;23.912;2022-09-09T14:07:32;3.85;;;0.90;;
40152;SDS011;26371;56.992;23.912;2022-09-09T14:10:01;3.80;;;0.80;;
40152;SDS011;26371;56.992;23.912;2022-09-09T14:12:31;3.35;;;0.75;;
40152;SDS011;26371;56.992;23.912;2022-09-09T14:15:03;4.28;;;0.93;;
40152;SDS011;26371;56.992;23.912;2022-09-09T14:17:33;3.08;;;1.00;;
40152;SDS011;26371;56.992;23.912;2022-09-09T14:20:03;1.45;;;0.52;;
40152;SDS011;26371;56.992;23.912;2022-09-09T14:22:36;7.15;;;0.68;;
40152;SDS011;26371;56.992;23.912;2022-09-09T14:25:07;6.20;;;0.60;;
40152;SDS011;26371;56.992;23.912;2022-09-09T14:27:36;5.47;;;0.82;;
40152;SDS011;26371;56.992;23.912;2022-09-09T14:30:07;4.85;;;0.82;;
40152;SDS011;26371;56.992;23.912;2022-09-09T14:32:37;4.15;;;0.95;;
40152;SDS011;26371;56.992;23.912;2022-09-09T14:35:06;9.02;;;0.98;;
40152;SDS011;26371;56.992;23.912;2022-09-09T14:37:38;3.60;;;0.70;;
40152;SDS011;26371;56.992;23.912;2022-09-09T14:40:07;2.72;;;0.50;;
40152;SDS011;26371;56.992;23.912;2022-09-09T14:42:37;2.20;;;0.60;;
40152;SDS011;26371;56.992;23.912;2022-09-09T14:45:08;4.20;;;0.70;;
40152;SDS011;26371;56.992;23.912;2022-09-09T14:47:37;2.72;;;0.80;;
40152;SDS011;26371;56.992;23.912;2022-09-09T14:50:07;4.22;;;0.90;;
40152;SDS011;26371;56.992;23.912;2022-09-09T14:52:38;5.05;;;0.80;;
40152;SDS011;26371;56.992;23.912;2022-09-09T14:55:07;2.65;;;0.80;;
40152;SDS011;26371;56.992;23.912;2022-09-09T14:57:36;2.53;;;0.88;;
40152;SDS011;26371;56.992;23.912;2022-09-09T15:00:08;3.47;;;0.90;;
40152;SDS011;26371;56.992;23.912;2022-09-09T15:02:38;6.57;;;0.90;;
40152;SDS011;26371;56.992;23.912;2022-09-09T15:05:08;3.78;;;0.90;;
40152;SDS011;26371;56.992;23.912;2022-09-09T15:07:39;3.58;;;0.75;;
40152;SDS011;26371;56.992;23.912;2022-09-09T15:10:08;2.58;;;0.70;;
40152;SDS011;26371;56.992;23.912;2022-09-09T15:12:38;2.25;;;0.70;;
40152;SDS011;26371;56.992;23.912;2022-09-09T15:15:09;3.05;;;0.68;;
40152;SDS011;26371;56.992;23.912;2022-09-09T15:17:39;3.00;;;0.70;;
40152;SDS011;26371;56.992;23.912;2022-09-09T15:25:09;4.57;;;1.00;;
40152;SDS011;26371;56.992;23.912;2022-09-09T15:27:39;4.70;;;0.80;;
40152;SDS011;26371;56.992;23.912;2022-09-09T15:30:08;4.25;;;1.15;;
40152;SDS011;26371;56.992;23.912;2022-09-09T15:32:38;3.42;;;0.90;;
40152;SDS011;26371;56.992;23.912;2022-09-09T15:37:36;2.97;;;1.20;;
40152;SDS011;26371;56.992;23.912;2022-09-09T15:40:07;5.30;;;1.40;;
40152;SDS011;26371;56.992;23.912;2022-09-09T15:42:37;3.13;;;1.33;;
40152;SDS011;26371;56.992;23.912;2022-09-09T15:45:07;5.40;;;2.10;;
40152;SDS011;26371;56.992;23.912;2022-09-09T15:47:36;6.57;;;2.33;;
40152;SDS011;26371;56.992;23.912;2022-09-09T15:50:06;3.92;;;1.83;;
40152;SDS011;26371;56.992;23.912;2022-09-09T15:52:36;4.70;;;1.38;;
40152;SDS011;26371;56.992;23.912;2022-09-09T15:55:07;3.67;;;1.30;;
40152;SDS011;26371;56.992;23.912;2022-09-09T15:57:36;2.72;;;1.00;;
40152;SDS011;26371;56.992;23.912;2022-09-09T16:00:05;4.88;;;1.20;;
40152;SDS011;26371;56.992;23.912;2022-09-09T16:02:36;8.15;;;1.55;;
40152;SDS011;26371;56.992;23.912;2022-09-09T16:05:06;4.55;;;1.15;;
40152;SDS011;26371;56.992;23.912;2022-09-09T16:07:36;6.00;;;1.10;;
40152;SDS011;26371;56.992;23.912;2022-09-09T16:10:05;3.75;;;1.05;;
40152;SDS011;26371;56.992;23.912;2022-09-09T16:12:36;3.67;;;0.90;;
40152;SDS011;26371;56.992;23.912;2022-09-09T16:15:06;5.70;;;0.90;;
40152;SDS011;26371;56.992;23.912;2022-09-09T16:17:35;2.67;;;0.98;;
40152;SDS011;26371;56.992;23.912;2022-09-09T16:20:05;4.50;;;0.90;;
40152;SDS011;26371;56.992;23.912;2022-09-09T16:22:35;3.58;;;1.05;;
40152;SDS011;26371;56.992;23.912;2022-09-09T16:25:04;5.00;;;1.30;;
40152;SDS011;26371;56.992;23.912;2022-09-09T16:27:36;5.00;;;1.58;;
40152;SDS011;26371;56.992;23.912;2022-09-09T16:30:06;6.82;;;2.83;;
40152;SDS011;26371;56.992;23.912;2022-09-09T16:32:36;4.93;;;2.70;;
40152;SDS011;26371;56.992;23.912;2022-09-09T16:35:05;4.43;;;2.10;;
40152;SDS011;26371;56.992;23.912;2022-09-09T16:37:34;5.20;;;1.98;;
40152;SDS011;26371;56.992;23.912;2022-09-09T16:40:04;3.90;;;1.60;;
40152;SDS011;26371;56.992;23.912;2022-09-09T16:42:36;3.92;;;1.73;;
40152;SDS011;26371;56.992;23.912;2022-09-09T16:45:06;6.97;;;1.67;;
40152;SDS011;26371;56.992;23.912;2022-09-09T16:47:36;5.30;;;1.60;;
40152;SDS011;26371;56.992;23.912;2022-09-09T16:50:05;8.57;;;1.98;;
40152;SDS011;26371;56.992;23.912;2022-09-09T16:52:34;4.28;;;1.70;;
40152;SDS011;26371;56.992;23.912;2022-09-09T16:57:33;5.30;;;1.90;;
40152;SDS011;26371;56.992;23.912;2022-09-09T17:00:04;5.57;;;1.70;;
40152;SDS011;26371;56.992;23.912;2022-09-09T17:02:35;5.53;;;1.75;;
40152;SDS011;26371;56.992;23.912;2022-09-09T17:05:05;5.10;;;1.83;;
40152;SDS011;26371;56.992;23.912;2022-09-09T17:07:34;6.10;;;2.05;;
40152;SDS011;26371;56.992;23.912;2022-09-09T17:10:04;6.13;;;1.85;;
40152;SDS011;26371;56.992;23.912;2022-09-09T17:12:34;7.60;;;2.00;;
40152;SDS011;26371;56.992;23.912;2022-09-09T17:15:10;4.95;;;1.60;;
40152;SDS011;26371;56.992;23.912;2022-09-09T17:17:39;3.53;;;1.50;;
40152;SDS011;26371;56.992;23.912;2022-09-09T17:20:11;7.00;;;1.33;;
40152;SDS011;26371;56.992;23.912;2022-09-09T17:22:41;4.38;;;1.50;;
40152;SDS011;26371;56.992;23.912;2022-09-09T17:25:10;3.97;;;1.60;;
40152;SDS011;26371;56.992;23.912;2022-09-09T17:30:10;6.65;;;2.05;;
40152;SDS011;26371;56.992;23.912;2022-09-09T17:32:40;8.60;;;2.38;;
40152;SDS011;26371;56.992;23.912;2022-09-09T17:37:38;13.65;;;4.53;;
40152;SDS011;26371;56.992;23.912;2022-09-09T17:40:08;13.00;;;5.57;;
40152;SDS011;26371;56.992;23.912;2022-09-09T17:42:37;8.32;;;5.30;;
40152;SDS011;26371;56.992;23.912;2022-09-09T17:45:07;13.00;;;7.32;;
40152;SDS011;26371;56.992;23.912;2022-09-09T17:50:07;12.98;;;7.03;;
40152;SDS011;26371;56.992;23.912;2022-09-09T17:52:37;10.75;;;5.47;;
40152;SDS011;26371;56.992;23.912;2022-09-09T17:55:07;12.95;;;6.75;;
40152;SDS011;26371;56.992;23.912;2022-09-09T17:57:37;11.52;;;6.45;;
40152;SDS011;26371;56.992;23.912;2022-09-09T18:00:07;11.98;;;5.25;;
40152;SDS011;26371;56.992;23.912;2022-09-09T18:02:41;9.55;;;5.50;;
40152;SDS011;26371;56.992;23.912;2022-09-09T18:05:10;11.60;;;4.78;;
40152;SDS011;26371;56.992;23.912;2022-09-09T18:07:40;9.88;;;4.65;;
40152;SDS011;26371;56.992;23.912;2022-09-09T18:10:09;11.85;;;5.15;;
40152;SDS011;26371;56.992;23.912;2022-09-09T18:12:38;12.35;;;5.00;;
40152;SDS011;26371;56.992;23.912;2022-09-09T18:15:08;10.23;;;4.40;;
40152;SDS011;26371;56.992;23.912;2022-09-09T18:17:45;15.25;;;5.20;;
40152;SDS011;26371;56.992;23.912;2022-09-09T18:20:14;16.80;;;6.93;;
40152;SDS011;26371;56.992;23.912;2022-09-09T18:22:44;13.25;;;6.20;;
40152;SDS011;26371;56.992;23.912;2022-09-09T18:25:13;18.92;;;9.23;;
40152;SDS011;26371;56.992;23.912;2022-09-09T18:27:42;23.15;;;13.02;;
40152;SDS011;26371;56.992;23.912;2022-09-09T18:30:11;31.05;;;20.02;;
40152;SDS011;26371;56.992;23.912;2022-09-09T18:32:41;29.58;;;18.85;;
40152;SDS011;26371;56.992;23.912;2022-09-09T18:35:12;52.90;;;34.53;;
40152;SDS011;26371;56.992;23.912;2022-09-09T18:37:41;43.33;;;27.83;;
40152;SDS011;26371;56.992;23.912;2022-09-09T18:40:11;34.65;;;23.40;;
40152;SDS011;26371;56.992;23.912;2022-09-09T18:42:40;40.03;;;22.60;;
40152;SDS011;26371;56.992;23.912;2022-09-09T18:45:09;33.60;;;19.02;;
40152;SDS011;26371;56.992;23.912;2022-09-09T18:47:38;56.40;;;26.13;;
40152;SDS011;26371;56.992;23.912;2022-09-09T18:50:08;52.03;;;24.60;;
40152;SDS011;26371;56.992;23.912;2022-09-09T18:52:39;44.75;;;21.30;;
40152;SDS011;26371;56.992;23.912;2022-09-09T18:55:09;30.73;;;16.55;;
40152;SDS011;26371;56.992;23.912;2022-09-09T18:57:38;36.03;;;14.55;;
40152;SDS011;26371;56.992;23.912;2022-09-09T19:00:09;30.83;;;14.35;;
40152;SDS011;26371;56.992;23.912;2022-09-09T19:02:39;26.83;;;13.13;;
40152;SDS011;26371;56.992;23.912;2022-09-09T19:05:08;23.67;;;12.10;;
40152;SDS011;26371;56.992;23.912;2022-09-09T19:07:37;23.10;;;10.38;;
40152;SDS011;26371;56.992;23.912;2022-09-09T19:10:08;22.10;;;10.00;;
40152;SDS011;26371;56.992;23.912;2022-09-09T19:12:37;26.95;;;11.20;;
40152;SDS011;26371;56.992;23.912;2022-09-09T19:15:07;24.80;;;10.57;;
40152;SDS011;26371;56.992;23.912;2022-09-09T19:17:37;33.53;;;11.73;;
40152;SDS011;26371;56.992;23.912;2022-09-09T19:20:06;24.70;;;10.50;;
40152;SDS011;26371;56.992;23.912;2022-09-09T19:22:37;21.02;;;8.63;;
40152;SDS011;26371;56.992;23.912;2022-09-09T19:25:07;22.80;;;8.63;;
40152;SDS011;26371;56.992;23.912;2022-09-09T19:27:36;18.02;;;7.63;;
40152;SDS011;26371;56.992;23.912;2022-09-09T19:30:06;15.20;;;6.35;;
40152;SDS011;26371;56.992;23.912;2022-09-09T19:32:36;15.38;;;5.97;;
40152;SDS011;26371;56.992;23.912;2022-09-09T19:35:20;19.90;;;5.25;;
40152;SDS011;26371;56.992;23.912;2022-09-09T19:40:20;23.00;;;8.30;;
40152;SDS011;26371;56.992;23.912;2022-09-09T19:42:50;17.88;;;7.75;;
40152;SDS011;26371;56.992;23.912;2022-09-09T19:45:19;16.30;;;6.47;;
40152;SDS011;26371;56.992;23.912;2022-09-09T19:47:49;12.70;;;5.03;;
40152;SDS011;26371;56.992;23.912;2022-09-09T19:50:19;15.18;;;5.07;;
40152;SDS011;26371;56.992;23.912;2022-09-09T19:52:48;16.05;;;4.57;;
40152;SDS011;26371;56.992;23.912;2022-09-09T19:55:20;13.63;;;4.10;;
40152;SDS011;26371;56.992;23.912;2022-09-09T19:57:54;9.05;;;3.92;;
40152;SDS011;26371;56.992;23.912;2022-09-09T20:00:23;11.50;;;4.05;;
40152;SDS011;26371;56.992;23.912;2022-09-09T20:02:53;11.82;;;3.50;;
40152;SDS011;26371;56.992;23.912;2022-09-09T20:05:45;7.97;;;3.05;;
40152;SDS011;26371;56.992;23.912;2022-09-09T20:08:16;11.75;;;3.38;;
40152;SDS011;26371;56.992;23.912;2022-09-09T20:10:53;6.13;;;2.53;;
40152;SDS011;26371;56.992;23.912;2022-09-09T20:13:22;9.07;;;2.80;;
40152;SDS011;26371;56.992;23.912;2022-09-09T20:15:57;8.50;;;2.70;;
40152;SDS011;26371;56.992;23.912;2022-09-09T20:18:31;11.88;;;2.60;;
40152;SDS011;26371;56.992;23.912;2022-09-09T20:21:02;8.88;;;3.00;;
40152;SDS011;26371;56.992;23.912;2022-09-09T20:23:33;10.63;;;2.42;;
40152;SDS011;26371;56.992;23.912;2022-09-09T20:26:05;6.07;;;2.50;;
40152;SDS011;26371;56.992;23.912;2022-09-09T20:28:36;7.00;;;2.50;;
40152;SDS011;26371;56.992;23.912;2022-09-09T20:31:06;7.57;;;2.63;;
40152;SDS011;26371;56.992;23.912;2022-09-09T20:33:37;8.75;;;2.85;;
40152;SDS011;26371;56.992;23.912;2022-09-09T20:36:11;12.07;;;2.72;;
40152;SDS011;26371;56.992;23.912;2022-09-09T20:38:41;7.13;;;2.33;;
40152;SDS011;26371;56.992;23.912;2022-09-09T20:41:13;7.45;;;2.30;;